sensor_id;sensor_type;location;lat;lon;timestamp;pressure;altitude;pressure_sealevel;temperature;humidity
69535;BME280;56754;51.568;5.048;2023-08-20T00:00:07;102024.16;;;23.34;66.84
69535;BME280;56754;51.568;5.048;2023-08-20T00:02:33;102024.94;;;23.34;66.99
69535;BME280;56754;51.568;5.048;2023-08-20T00:05:01;102023.34;;;23.33;66.89
69535;BME280;56754;51.568;5.048;2023-08-20T00:07:27;102027.22;;;23.32;66.81
69535;BME280;56754;51.568;5.048;2023-08-20T00:09:52;102018.63;;;23.30;66.98
69535;BME280;56754;51.568;5.048;2023-08-20T00:12:17;102021.72;;;23.29;66.84
69535;BME280;56754;51.568;5.048;2023-08-20T00:15:02;102018.22;;;23.28;66.87
69535;BME280;56754;51.568;5.048;2023-08-20T00:17:28;102028.69;;;23.26;66.88
69535;BME280;56754;51.568;5.048;2023-08-20T00:19:56;102028.69;;;23.26;66.84
69535;BME280;56754;51.568;5.048;2023-08-20T00:22:22;102029.88;;;23.25;66.79
69535;BME280;56754;51.568;5.048;2023-08-20T00:24:48;102047.38;;;23.24;66.71
69535;BME280;56754;51.568;5.048;2023-08-20T00:27:14;102041.50;;;23.22;66.82
69535;BME280;56754;51.568;5.048;2023-08-20T00:29:39;102042.66;;;23.21;66.69
69535;BME280;56754;51.568;5.048;2023-08-20T00:32:04;102049.25;;;23.20;66.73
69535;BME280;56754;51.568;5.048;2023-08-20T00:34:30;102055.88;;;23.19;66.60
69535;BME280;56754;51.568;5.048;2023-08-20T00:36:55;102056.22;;;23.17;66.70
69535;BME280;56754;51.568;5.048;2023-08-20T00:39:20;102062.47;;;23.18;66.68
69535;BME280;56754;51.568;5.048;2023-08-20T00:41:45;102063.63;;;23.17;66.78
69535;BME280;56754;51.568;5.048;2023-08-20T00:44:11;102070.25;;;23.16;66.56
69535;BME280;56754;51.568;5.048;2023-08-20T00:46:36;102074.91;;;23.15;66.76
69535;BME280;56754;51.568;5.048;2023-08-20T00:49:01;102082.28;;;23.15;66.82
69535;BME280;56754;51.568;5.048;2023-08-20T00:51:27;102079.94;;;23.13;66.68
69535;BME280;56754;51.568;5.048;2023-08-20T00:53:53;102087.31;;;23.13;66.80
69535;BME280;56754;51.568;5.048;2023-08-20T00:56:19;102085.75;;;23.12;66.75
69535;BME280;56754;51.568;5.048;2023-08-20T00:58:44;102100.94;;;23.13;66.82
69535;BME280;56754;51.568;5.048;2023-08-20T01:01:10;102095.50;;;23.13;66.57
69535;BME280;56754;51.568;5.048;2023-08-20T01:03:35;102101.75;;;23.13;66.51
69535;BME280;56754;51.568;5.048;2023-08-20T01:06:12;102097.44;;;23.12;66.56
69535;BME280;56754;51.568;5.048;2023-08-20T01:08:42;102100.56;;;23.11;66.66
69535;BME280;56754;51.568;5.048;2023-08-20T01:11:28;102107.94;;;23.10;66.75
69535;BME280;56754;51.568;5.048;2023-08-20T01:13:54;102098.97;;;23.10;66.77
69535;BME280;56754;51.568;5.048;2023-08-20T01:16:20;102114.53;;;23.09;66.70
69535;BME280;56754;51.568;5.048;2023-08-20T01:18:46;102104.00;;;23.08;66.70
69535;BME280;56754;51.568;5.048;2023-08-20T01:21:26;102104.41;;;23.10;66.59
69535;BME280;56754;51.568;5.048;2023-08-20T01:27:08;102099.69;;;23.07;66.76
69535;BME280;56754;51.568;5.048;2023-08-20T01:29:36;102096.19;;;23.06;66.53
69535;BME280;56754;51.568;5.048;2023-08-20T01:32:02;102100.84;;;23.06;66.46
69535;BME280;56754;51.568;5.048;2023-08-20T01:34:29;102091.09;;;23.05;66.39
69535;BME280;56754;51.568;5.048;2023-08-20T01:36:54;102097.69;;;23.04;66.66
69535;BME280;56754;51.568;5.048;2023-08-20T01:39:20;102108.59;;;23.04;66.38
69535;BME280;56754;51.568;5.048;2023-08-20T01:41:45;102107.03;;;23.03;66.24
69535;BME280;56754;51.568;5.048;2023-08-20T01:44:11;102103.50;;;23.02;66.21
69535;BME280;56754;51.568;5.048;2023-08-20T01:46:36;102105.47;;;23.02;66.22
69535;BME280;56754;51.568;5.048;2023-08-20T01:49:01;102109.31;;;23.01;66.17
69535;BME280;56754;51.568;5.048;2023-08-20T01:51:26;102115.59;;;23.01;66.32
69535;BME280;56754;51.568;5.048;2023-08-20T01:53:52;102118.66;;;23.00;66.43
69535;BME280;56754;51.568;5.048;2023-08-20T01:56:17;102109.69;;;22.99;66.45
69535;BME280;56754;51.568;5.048;2023-08-20T01:58:42;102113.94;;;22.97;66.35
69535;BME280;56754;51.568;5.048;2023-08-20T02:01:08;102112.78;;;22.98;66.41
69535;BME280;56754;51.568;5.048;2023-08-20T02:03:36;102107.69;;;22.96;66.42
69535;BME280;56754;51.568;5.048;2023-08-20T02:06:01;102120.56;;;22.96;66.53
69535;BME280;56754;51.568;5.048;2023-08-20T02:08:26;102124.41;;;22.94;66.34
69535;BME280;56754;51.568;5.048;2023-08-20T02:11:00;102131.78;;;22.94;66.17
69535;BME280;56754;51.568;5.048;2023-08-20T02:13:25;102117.34;;;22.93;66.26
69535;BME280;56754;51.568;5.048;2023-08-20T02:16:03;102113.84;;;22.93;66.62
69535;BME280;56754;51.568;5.048;2023-08-20T02:18:30;102125.88;;;22.92;66.49
69535;BME280;56754;51.568;5.048;2023-08-20T02:20:55;102131.34;;;22.92;66.65
69535;BME280;56754;51.568;5.048;2023-08-20T02:23:21;102125.09;;;22.91;66.50
69535;BME280;56754;51.568;5.048;2023-08-20T02:25:47;102125.47;;;22.90;66.57
69535;BME280;56754;51.568;5.048;2023-08-20T02:28:13;102129.00;;;22.90;66.58
69535;BME280;56754;51.568;5.048;2023-08-20T02:30:45;102118.44;;;22.89;66.46
69535;BME280;56754;51.568;5.048;2023-08-20T02:33:11;102116.88;;;22.88;66.46
69535;BME280;56754;51.568;5.048;2023-08-20T02:35:37;102114.50;;;22.86;66.28
69535;BME280;56754;51.568;5.048;2023-08-20T02:38:03;102122.31;;;22.88;66.68
69535;BME280;56754;51.568;5.048;2023-08-20T02:40:29;102121.88;;;22.86;66.47
69535;BME280;56754;51.568;5.048;2023-08-20T02:42:54;102122.66;;;22.86;66.62
69535;BME280;56754;51.568;5.048;2023-08-20T02:45:19;102116.81;;;22.84;66.36
69535;BME280;56754;51.568;5.048;2023-08-20T02:47:45;102113.28;;;22.84;66.37
69535;BME280;56754;51.568;5.048;2023-08-20T02:50:10;102116.38;;;22.82;66.56
69535;BME280;56754;51.568;5.048;2023-08-20T02:52:35;102108.97;;;22.83;66.46
69535;BME280;56754;51.568;5.048;2023-08-20T02:55:00;102110.91;;;22.82;66.50
69535;BME280;56754;51.568;5.048;2023-08-20T02:57:26;102109.34;;;22.81;66.20
69535;BME280;56754;51.568;5.048;2023-08-20T02:59:51;102104.25;;;22.80;66.45
69535;BME280;56754;51.568;5.048;2023-08-20T03:02:16;102106.19;;;22.79;66.49
69535;BME280;56754;51.568;5.048;2023-08-20T03:04:42;102100.31;;;22.77;66.62
69535;BME280;56754;51.568;5.048;2023-08-20T03:07:07;102105.75;;;22.77;66.50
69535;BME280;56754;51.568;5.048;2023-08-20T03:09:32;102104.19;;;22.76;66.77
69535;BME280;56754;51.568;5.048;2023-08-20T03:11:58;102097.53;;;22.74;66.93
69535;BME280;56754;51.568;5.048;2023-08-20T03:14:23;102110.38;;;22.73;66.66
69535;BME280;56754;51.568;5.048;2023-08-20T03:16:48;102108.00;;;22.71;66.33
69535;BME280;56754;51.568;5.048;2023-08-20T03:19:15;102107.22;;;22.71;66.37
69535;BME280;56754;51.568;5.048;2023-08-20T03:21:40;102106.81;;;22.69;66.40
69535;BME280;56754;51.568;5.048;2023-08-20T03:24:06;102112.59;;;22.67;66.76
69535;BME280;56754;51.568;5.048;2023-08-20T03:26:32;102118.41;;;22.66;66.75
69535;BME280;56754;51.568;5.048;2023-08-20T03:28:57;102109.03;;;22.63;66.36
69535;BME280;56754;51.568;5.048;2023-08-20T03:31:22;102114.81;;;22.62;66.72
69535;BME280;56754;51.568;5.048;2023-08-20T03:33:48;102118.72;;;22.61;66.66
69535;BME280;56754;51.568;5.048;2023-08-20T03:36:13;102118.28;;;22.59;66.58
69535;BME280;56754;51.568;5.048;2023-08-20T03:38:39;102116.69;;;22.58;66.54
69535;BME280;56754;51.568;5.048;2023-08-20T03:41:04;102119.00;;;22.56;66.82
69535;BME280;56754;51.568;5.048;2023-08-20T03:43:29;102122.09;;;22.54;66.75
69535;BME280;56754;51.568;5.048;2023-08-20T03:45:55;102127.53;;;22.54;66.96
69535;BME280;56754;51.568;5.048;2023-08-20T03:48:20;102133.34;;;22.53;66.86
69535;BME280;56754;51.568;5.048;2023-08-20T03:50:45;102130.97;;;22.51;66.83
69535;BME280;56754;51.568;5.048;2023-08-20T03:53:10;102134.84;;;22.50;66.96
69535;BME280;56754;51.568;5.048;2023-08-20T03:55:38;102142.22;;;22.49;67.06
69535;BME280;56754;51.568;5.048;2023-08-20T03:58:04;102130.88;;;22.47;66.98
69535;BME280;56754;51.568;5.048;2023-08-20T04:00:29;102130.88;;;22.47;66.86
69535;BME280;56754;51.568;5.048;2023-08-20T04:02:54;102124.66;;;22.47;66.80
69535;BME280;56754;51.568;5.048;2023-08-20T04:05:19;102128.53;;;22.46;67.21
69535;BME280;56754;51.568;5.048;2023-08-20T04:07:46;102127.75;;;22.45;67.18
69535;BME280;56754;51.568;5.048;2023-08-20T04:10:11;102123.44;;;22.44;67.04
69535;BME280;56754;51.568;5.048;2023-08-20T04:12:36;102119.94;;;22.44;67.16
69535;BME280;56754;51.568;5.048;2023-08-20T04:15:02;102130.03;;;22.43;67.12
69535;BME280;56754;51.568;5.048;2023-08-20T04:17:27;102132.31;;;22.41;66.95
69535;BME280;56754;51.568;5.048;2023-08-20T04:19:52;102137.78;;;22.41;67.04
69535;BME280;56754;51.568;5.048;2023-08-20T04:22:17;102137.78;;;22.41;66.96
69535;BME280;56754;51.568;5.048;2023-08-20T04:24:43;102134.25;;;22.41;67.25
69535;BME280;56754;51.568;5.048;2023-08-20T04:27:08;102136.22;;;22.40;67.05
69535;BME280;56754;51.568;5.048;2023-08-20T04:29:33;102142.81;;;22.39;67.03
69535;BME280;56754;51.568;5.048;2023-08-20T04:31:59;102141.22;;;22.38;66.88
69535;BME280;56754;51.568;5.048;2023-08-20T04:34:24;102140.44;;;22.38;67.12
69535;BME280;56754;51.568;5.048;2023-08-20T04:36:49;102139.66;;;22.37;67.15
69535;BME280;56754;51.568;5.048;2023-08-20T04:39:15;102140.81;;;22.36;66.89
69535;BME280;56754;51.568;5.048;2023-08-20T04:41:40;102147.38;;;22.35;67.00
69535;BME280;56754;51.568;5.048;2023-08-20T04:44:05;102147.38;;;22.35;66.99
69535;BME280;56754;51.568;5.048;2023-08-20T04:46:30;102143.09;;;22.34;66.99
69535;BME280;56754;51.568;5.048;2023-08-20T04:48:56;102149.69;;;22.33;66.63
69535;BME280;56754;51.568;5.048;2023-08-20T04:51:21;102161.72;;;22.32;66.72
69535;BME280;56754;51.568;5.048;2023-08-20T04:53:46;102157.88;;;22.33;66.56
69535;BME280;56754;51.568;5.048;2023-08-20T04:56:12;102157.41;;;22.31;66.07
69535;BME280;56754;51.568;5.048;2023-08-20T04:58:37;102161.28;;;22.30;66.62
69535;BME280;56754;51.568;5.048;2023-08-20T05:01:02;102159.38;;;22.31;66.12
69535;BME280;56754;51.568;5.048;2023-08-20T05:03:27;102158.56;;;22.30;66.68
69535;BME280;56754;51.568;5.048;2023-08-20T05:05:53;102156.97;;;22.29;66.64
69535;BME280;56754;51.568;5.048;2023-08-20T05:08:18;102165.16;;;22.29;66.75
69535;BME280;56754;51.568;5.048;2023-08-20T05:10:43;102155.41;;;22.28;66.15
69535;BME280;56754;51.568;5.048;2023-08-20T05:13:09;102167.09;;;22.29;66.77
69535;BME280;56754;51.568;5.048;2023-08-20T05:15:34;102167.44;;;22.27;66.65
69535;BME280;56754;51.568;5.048;2023-08-20T05:18:00;102172.88;;;22.27;66.16
69535;BME280;56754;51.568;5.048;2023-08-20T05:20:26;102171.75;;;22.28;66.83
69535;BME280;56754;51.568;5.048;2023-08-20T05:22:51;102175.59;;;22.27;66.52
69535;BME280;56754;51.568;5.048;2023-08-20T05:25:16;102172.88;;;22.27;66.81
69535;BME280;56754;51.568;5.048;2023-08-20T05:27:41;102181.06;;;22.27;66.51
69535;BME280;56754;51.568;5.048;2023-08-20T05:30:07;102177.53;;;22.26;66.97
69535;BME280;56754;51.568;5.048;2023-08-20T05:32:32;102175.59;;;22.27;66.59
69535;BME280;56754;51.568;5.048;2023-08-20T05:34:58;102174.03;;;22.26;66.68
69535;BME280;56754;51.568;5.048;2023-08-20T05:37:23;102173.25;;;22.25;66.87
69535;BME280;56754;51.568;5.048;2023-08-20T05:39:48;102186.88;;;22.25;66.95
69535;BME280;56754;51.568;5.048;2023-08-20T05:42:14;102186.88;;;22.25;66.68
69535;BME280;56754;51.568;5.048;2023-08-20T05:44:39;102189.59;;;22.25;66.78
69535;BME280;56754;51.568;5.048;2023-08-20T05:47:05;102188.81;;;22.25;66.47
69535;BME280;56754;51.568;5.048;2023-08-20T05:49:30;102180.97;;;22.23;66.35
69535;BME280;56754;51.568;5.048;2023-08-20T05:51:55;102181.78;;;22.24;66.77
69535;BME280;56754;51.568;5.048;2023-08-20T05:54:20;102179.84;;;22.24;66.88
69535;BME280;56754;51.568;5.048;2023-08-20T05:56:46;102179.03;;;22.24;66.04
69535;BME280;56754;51.568;5.048;2023-08-20T05:59:11;102177.47;;;22.23;66.64
69535;BME280;56754;51.568;5.048;2023-08-20T06:01:36;102180.97;;;22.23;66.94
69535;BME280;56754;51.568;5.048;2023-08-20T06:04:02;102179.41;;;22.22;66.74
69535;BME280;56754;51.568;5.048;2023-08-20T06:06:27;102179.41;;;22.22;66.67
69535;BME280;56754;51.568;5.048;2023-08-20T06:08:52;102182.47;;;22.21;66.77
69535;BME280;56754;51.568;5.048;2023-08-20T06:11:19;102177.47;;;22.23;66.66
69535;BME280;56754;51.568;5.048;2023-08-20T06:13:45;102181.34;;;22.22;66.77
69535;BME280;56754;51.568;5.048;2023-08-20T06:16:10;102178.63;;;22.22;66.91
69535;BME280;56754;51.568;5.048;2023-08-20T06:18:35;102182.47;;;22.21;67.03
69535;BME280;56754;51.568;5.048;2023-08-20T06:21:00;102184.06;;;22.22;66.49
69535;BME280;56754;51.568;5.048;2023-08-20T06:23:26;102184.06;;;22.22;66.84
69535;BME280;56754;51.568;5.048;2023-08-20T06:25:51;102184.84;;;22.22;67.14
69535;BME280;56754;51.568;5.048;2023-08-20T06:28:17;102184.06;;;22.22;67.31
69535;BME280;56754;51.568;5.048;2023-08-20T06:30:42;102183.72;;;22.23;66.79
69535;BME280;56754;51.568;5.048;2023-08-20T06:33:08;102188.81;;;22.25;66.92
69535;BME280;56754;51.568;5.048;2023-08-20T06:35:34;102183.78;;;22.27;66.99
69535;BME280;56754;51.568;5.048;2023-08-20T06:37:59;102184.22;;;22.29;66.97
69535;BME280;56754;51.568;5.048;2023-08-20T06:40:24;102183.50;;;22.32;66.79
69535;BME280;56754;51.568;5.048;2023-08-20T06:42:49;102188.59;;;22.34;67.08
69535;BME280;56754;51.568;5.048;2023-08-20T06:45:15;102181.66;;;22.36;67.03
69535;BME280;56754;51.568;5.048;2023-08-20T06:47:40;102187.97;;;22.40;66.67
69535;BME280;56754;51.568;5.048;2023-08-20T06:50:05;102183.75;;;22.43;66.53
69535;BME280;56754;51.568;5.048;2023-08-20T06:52:31;102190.41;;;22.45;66.67
69535;BME280;56754;51.568;5.048;2023-08-20T06:54:56;102197.88;;;22.48;66.69
69535;BME280;56754;51.568;5.048;2023-08-20T06:57:21;102197.16;;;22.52;66.51
69535;BME280;56754;51.568;5.048;2023-08-20T06:59:47;102203.03;;;22.54;66.56
69535;BME280;56754;51.568;5.048;2023-08-20T07:02:12;102200.72;;;22.56;66.38
69535;BME280;56754;51.568;5.048;2023-08-20T07:04:37;102206.63;;;22.58;66.19
69535;BME280;56754;51.568;5.048;2023-08-20T07:07:03;102207.06;;;22.60;65.24
69535;BME280;56754;51.568;5.048;2023-08-20T07:09:28;102202.03;;;22.62;65.86
69535;BME280;56754;51.568;5.048;2023-08-20T07:11:53;102207.91;;;22.64;65.98
69535;BME280;56754;51.568;5.048;2023-08-20T07:14:19;102204.47;;;22.67;65.95
69535;BME280;56754;51.568;5.048;2023-08-20T07:16:44;102209.19;;;22.70;65.53
69535;BME280;56754;51.568;5.048;2023-08-20T07:19:09;102202.25;;;22.73;65.99
69535;BME280;56754;51.568;5.048;2023-08-20T07:21:35;102204.59;;;22.74;65.30
69535;BME280;56754;51.568;5.048;2023-08-20T07:24:00;102203.88;;;22.77;65.49
69535;BME280;56754;51.568;5.048;2023-08-20T07:26:25;102213.28;;;22.80;65.73
69535;BME280;56754;51.568;5.048;2023-08-20T07:28:51;102212.94;;;22.81;65.72
69535;BME280;56754;51.568;5.048;2023-08-20T07:31:16;102212.22;;;22.84;65.56
69535;BME280;56754;51.568;5.048;2023-08-20T07:33:45;102213.44;;;22.87;64.87
69535;BME280;56754;51.568;5.048;2023-08-20T07:36:11;102212.72;;;22.90;64.69
69535;BME280;56754;51.568;5.048;2023-08-20T07:38:36;102215.06;;;22.91;65.37
69535;BME280;56754;51.568;5.048;2023-08-20T07:41:01;102222.56;;;22.94;64.99
69535;BME280;56754;51.568;5.048;2023-08-20T07:43:27;102222.22;;;22.96;64.80
69535;BME280;56754;51.568;5.048;2023-08-20T07:45:52;102219.53;;;23.00;64.98
69535;BME280;56754;51.568;5.048;2023-08-20T07:48:17;102220.78;;;23.02;65.07
69535;BME280;56754;51.568;5.048;2023-08-20T07:50:42;102216.88;;;23.03;63.70
69535;BME280;56754;51.568;5.048;2023-08-20T07:53:08;102212.09;;;22.97;60.99
69535;BME280;56754;51.568;5.048;2023-08-20T07:55:33;102222.13;;;22.92;60.63
69535;BME280;56754;51.568;5.048;2023-08-20T07:57:58;102213.50;;;22.90;60.89
69535;BME280;56754;51.568;5.048;2023-08-20T08:00:24;102208.06;;;22.90;61.64
69535;BME280;56754;51.568;5.048;2023-08-20T08:02:49;102220.53;;;22.91;61.65
69535;BME280;56754;51.568;5.048;2023-08-20T08:05:14;102222.91;;;22.93;62.05
69535;BME280;56754;51.568;5.048;2023-08-20T08:07:39;102226.50;;;22.97;63.19
69535;BME280;56754;51.568;5.048;2023-08-20T08:10:05;102230.09;;;23.01;63.86
69535;BME280;56754;51.568;5.048;2023-08-20T08:12:31;102234.41;;;23.02;62.38
69535;BME280;56754;51.568;5.048;2023-08-20T08:14:56;102224.28;;;23.03;62.10
69535;BME280;56754;51.568;5.048;2023-08-20T08:17:21;102230.50;;;23.03;61.66
69535;BME280;56754;51.568;5.048;2023-08-20T08:19:46;102223.13;;;23.04;62.04
69535;BME280;56754;51.568;5.048;2023-08-20T08:22:12;102224.72;;;23.05;63.06
69535;BME280;56754;51.568;5.048;2023-08-20T08:24:37;102227.06;;;23.06;62.33
69535;BME280;56754;51.568;5.048;2023-08-20T08:27:02;102234.47;;;23.06;62.71
69535;BME280;56754;51.568;5.048;2023-08-20T08:29:27;102236.03;;;23.07;62.50
69535;BME280;56754;51.568;5.048;2023-08-20T08:31:53;102228.66;;;23.07;61.64
69535;BME280;56754;51.568;5.048;2023-08-20T08:34:18;102235.69;;;23.08;61.42
69535;BME280;56754;51.568;5.048;2023-08-20T08:36:43;102227.13;;;23.10;61.23
69535;BME280;56754;51.568;5.048;2023-08-20T08:39:08;102240.41;;;23.11;61.79
69535;BME280;56754;51.568;5.048;2023-08-20T08:41:35;102236.19;;;23.14;64.07
69535;BME280;56754;51.568;5.048;2023-08-20T08:44:00;102240.53;;;23.19;63.87
69535;BME280;56754;51.568;5.048;2023-08-20T08:46:26;102238.25;;;23.21;64.40
69535;BME280;56754;51.568;5.048;2023-08-20T08:48:52;102237.75;;;23.15;63.57
69535;BME280;56754;51.568;5.048;2023-08-20T08:51:18;102242.72;;;23.09;64.52
69535;BME280;56754;51.568;5.048;2023-08-20T08:53:43;102241.50;;;23.07;62.73
69535;BME280;56754;51.568;5.048;2023-08-20T08:56:08;102252.09;;;23.12;62.75
69535;BME280;56754;51.568;5.048;2023-08-20T08:58:34;102241.34;;;23.19;63.73
69535;BME280;56754;51.568;5.048;2023-08-20T09:00:59;102243.41;;;23.26;64.40
69535;BME280;56754;51.568;5.048;2023-08-20T09:03:25;102241.91;;;23.28;64.62
69535;BME280;56754;51.568;5.048;2023-08-20T09:05:55;102251.88;;;23.21;64.75
69535;BME280;56754;51.568;5.048;2023-08-20T09:08:28;102250.59;;;23.14;65.31
69535;BME280;56754;51.568;5.048;2023-08-20T09:11:00;102244.31;;;23.10;65.66
69535;BME280;56754;51.568;5.048;2023-08-20T09:13:33;102251.66;;;23.10;65.90
69535;BME280;56754;51.568;5.048;2023-08-20T09:15:59;102251.38;;;23.15;64.44
69535;BME280;56754;51.568;5.048;2023-08-20T09:18:24;102246.50;;;23.24;64.28
69535;BME280;56754;51.568;5.048;2023-08-20T09:20:50;102246.25;;;23.33;63.39
69535;BME280;56754;51.568;5.048;2023-08-20T09:23:16;102252.81;;;23.28;64.41
69535;BME280;56754;51.568;5.048;2023-08-20T09:25:42;102260.50;;;23.23;65.16
69535;BME280;56754;51.568;5.048;2023-08-20T09:28:08;102260.00;;;23.17;65.63
69535;BME280;56754;51.568;5.048;2023-08-20T09:30:34;102251.03;;;23.16;64.85
69535;BME280;56754;51.568;5.048;2023-08-20T09:33:17;102261.34;;;23.27;63.89
69535;BME280;56754;51.568;5.048;2023-08-20T09:35:50;102259.63;;;23.38;63.48
69535;BME280;56754;51.568;5.048;2023-08-20T09:38:22;102255.66;;;23.35;64.21
69535;BME280;56754;51.568;5.048;2023-08-20T09:40:51;102259.41;;;23.27;65.15
69535;BME280;56754;51.568;5.048;2023-08-20T09:43:16;102249.59;;;23.23;65.47
69535;BME280;56754;51.568;5.048;2023-08-20T09:45:42;102258.13;;;23.21;63.69
69535;BME280;56754;51.568;5.048;2023-08-20T09:48:09;102252.44;;;23.30;64.39
69535;BME280;56754;51.568;5.048;2023-08-20T09:50:35;102260.03;;;23.40;63.05
69535;BME280;56754;51.568;5.048;2023-08-20T09:53:06;102252.69;;;23.44;64.29
69535;BME280;56754;51.568;5.048;2023-08-20T09:55:38;102255.66;;;23.35;64.86
69535;BME280;56754;51.568;5.048;2023-08-20T09:58:05;102257.91;;;23.30;65.47
69535;BME280;56754;51.568;5.048;2023-08-20T10:00:31;102261.34;;;23.27;65.53
69535;BME280;56754;51.568;5.048;2023-08-20T10:02:57;102268.75;;;23.26;65.73
69535;BME280;56754;51.568;5.048;2023-08-20T10:05:23;102262.50;;;23.26;63.55
69535;BME280;56754;51.568;5.048;2023-08-20T10:07:49;102267.75;;;23.34;62.58
69535;BME280;56754;51.568;5.048;2023-08-20T10:10:15;102260.88;;;23.44;64.66
69535;BME280;56754;51.568;5.048;2023-08-20T10:12:41;102257.31;;;23.40;64.56
69535;BME280;56754;51.568;5.048;2023-08-20T10:15:07;102267.34;;;23.36;64.98
69535;BME280;56754;51.568;5.048;2023-08-20T10:17:33;102261.06;;;23.32;65.54
69535;BME280;56754;51.568;5.048;2023-08-20T10:20:01;102257.13;;;23.29;65.72
69535;BME280;56754;51.568;5.048;2023-08-20T10:22:41;102258.69;;;23.30;65.75
69535;BME280;56754;51.568;5.048;2023-08-20T10:25:22;102254.50;;;23.36;63.58
69535;BME280;56754;51.568;5.048;2023-08-20T10:27:48;102257.81;;;23.46;62.59
69535;BME280;56754;51.568;5.048;2023-08-20T10:30:19;102261.72;;;23.48;63.87
69535;BME280;56754;51.568;5.048;2023-08-20T10:35:11;102259.63;;;23.38;65.30
69535;BME280;56754;51.568;5.048;2023-08-20T10:37:36;102256.09;;;23.37;65.48
69535;BME280;56754;51.568;5.048;2023-08-20T10:40:02;102255.66;;;23.35;65.82
69535;BME280;56754;51.568;5.048;2023-08-20T10:42:27;102258.09;;;23.41;61.81
69535;BME280;56754;51.568;5.048;2023-08-20T10:45:05;102253.97;;;23.50;61.93
69535;BME280;56754;51.568;5.048;2023-08-20T10:47:44;102257.09;;;23.49;64.25
69535;BME280;56754;51.568;5.048;2023-08-20T10:50:11;102254.28;;;23.45;65.00
69535;BME280;56754;51.568;5.048;2023-08-20T10:52:40;102259.66;;;23.42;65.31
69535;BME280;56754;51.568;5.048;2023-08-20T10:55:07;102259.22;;;23.39;65.53
69535;BME280;56754;51.568;5.048;2023-08-20T10:57:34;102260.16;;;23.47;62.24
69535;BME280;56754;51.568;5.048;2023-08-20T11:00:03;102261.50;;;23.57;63.50
69535;BME280;56754;51.568;5.048;2023-08-20T11:02:29;102256.03;;;23.57;64.09
69535;BME280;56754;51.568;5.048;2023-08-20T11:04:54;102259.09;;;23.52;64.67
69535;BME280;56754;51.568;5.048;2023-08-20T11:07:20;102259.81;;;23.49;65.14
69535;BME280;56754;51.568;5.048;2023-08-20T11:09:47;102260.53;;;23.46;65.25
69535;BME280;56754;51.568;5.048;2023-08-20T11:12:15;102257.81;;;23.46;65.25
69535;BME280;56754;51.568;5.048;2023-08-20T11:14:41;102254.28;;;23.45;65.40
69535;BME280;56754;51.568;5.048;2023-08-20T11:17:07;102257.00;;;23.45;65.39
69535;BME280;56754;51.568;5.048;2023-08-20T11:19:32;102253.25;;;23.53;64.31
69535;BME280;56754;51.568;5.048;2023-08-20T11:21:57;102241.66;;;23.60;63.72
69535;BME280;56754;51.568;5.048;2023-08-20T11:24:22;102242.94;;;23.66;64.21
69535;BME280;56754;51.568;5.048;2023-08-20T11:26:48;102243.19;;;23.57;63.43
69535;BME280;56754;51.568;5.048;2023-08-20T11:29:15;102236.09;;;23.53;64.06
69535;BME280;56754;51.568;5.048;2023-08-20T11:31:41;102241.13;;;23.51;64.28
69535;BME280;56754;51.568;5.048;2023-08-20T11:34:06;102241.25;;;23.58;64.39
69535;BME280;56754;51.568;5.048;2023-08-20T11:36:32;102237.47;;;23.66;64.10
69535;BME280;56754;51.568;5.048;2023-08-20T11:38:57;102238.78;;;23.72;63.59
69535;BME280;56754;51.568;5.048;2023-08-20T11:41:24;102223.81;;;23.66;62.92
69535;BME280;56754;51.568;5.048;2023-08-20T11:43:53;102227.66;;;23.61;63.67
69535;BME280;56754;51.568;5.048;2023-08-20T11:46:20;102222.50;;;23.56;63.67
69535;BME280;56754;51.568;5.048;2023-08-20T11:49:05;102219.34;;;23.54;63.95
69535;BME280;56754;51.568;5.048;2023-08-20T11:51:40;102215.03;;;23.53;64.05
69535;BME280;56754;51.568;5.048;2023-08-20T11:54:17;102215.53;;;23.59;64.18
69535;BME280;56754;51.568;5.048;2023-08-20T11:59:10;102203.31;;;23.72;63.37
69535;BME280;56754;51.568;5.048;2023-08-20T12:01:36;102205.53;;;23.67;62.96
69535;BME280;56754;51.568;5.048;2023-08-20T12:04:03;102192.97;;;23.62;63.37
69535;BME280;56754;51.568;5.048;2023-08-20T12:06:29;102192.53;;;23.60;63.57
69535;BME280;56754;51.568;5.048;2023-08-20T12:08:54;102193.78;;;23.66;63.71
69535;BME280;56754;51.568;5.048;2023-08-20T12:11:24;102203.72;;;23.74;63.70
69535;BME280;56754;51.568;5.048;2023-08-20T12:13:49;102206.91;;;23.80;63.08
69535;BME280;56754;51.568;5.048;2023-08-20T12:16:14;102212.69;;;23.75;62.45
69535;BME280;56754;51.568;5.048;2023-08-20T12:18:40;102205.59;;;23.70;62.99
69535;BME280;56754;51.568;5.048;2023-08-20T12:21:05;102210.28;;;23.70;63.07
69535;BME280;56754;51.568;5.048;2023-08-20T12:23:30;102206.72;;;23.69;63.05
69535;BME280;56754;51.568;5.048;2023-08-20T12:25:55;102208.34;;;23.70;63.32
69535;BME280;56754;51.568;5.048;2023-08-20T12:28:21;102210.03;;;23.78;63.26
69535;BME280;56754;51.568;5.048;2023-08-20T12:30:46;102208.56;;;23.84;62.82
69535;BME280;56754;51.568;5.048;2023-08-20T12:33:11;102207.34;;;23.82;61.64
69535;BME280;56754;51.568;5.048;2023-08-20T12:35:37;102215.06;;;23.76;62.10
69535;BME280;56754;51.568;5.048;2023-08-20T12:38:02;102208.03;;;23.75;62.44
69535;BME280;56754;51.568;5.048;2023-08-20T12:40:28;102205.31;;;23.75;62.34
69535;BME280;56754;51.568;5.048;2023-08-20T12:42:53;102200.63;;;23.76;62.55
69535;BME280;56754;51.568;5.048;2023-08-20T12:45:20;102204.16;;;23.76;62.67
69535;BME280;56754;51.568;5.048;2023-08-20T12:47:46;102202.97;;;23.77;62.53
69535;BME280;56754;51.568;5.048;2023-08-20T12:50:11;102203.75;;;23.78;62.35
69535;BME280;56754;51.568;5.048;2023-08-20T12:52:37;102201.75;;;23.75;62.42